Time;durP1;ratioP1;P1;durP2;ratioP2;P2;SDS_P1;SDS_P2;PMS_P1;PMS_P2;Temp;Humidity;BMP_temperature;BMP_pressure;BME280_temperature;BME280_humidity;BME280_pressure;Samples;Min_cycle;Max_cycle;Signal;HPM_P1;HPM_P2
2023/03/18 00:02:11;;;;;;;8.55;3.53;;;;;;;;;;4991390;28;20147;-49
2023/03/18 00:04:39;;;;;;;11.93;3.83;;;;;;;;;;5005089;28;20292;-48
2023/03/18 00:07:08;;;;;;;10.25;3.45;;;;;;;;;;4994106;28;20072;-46
2023/03/18 00:09:36;;;;;;;10.55;3.92;;;;;;;;;;5004635;28;20107;-48
2023/03/18 00:12:03;;;;;;;11.25;3.15;;;;;;;;;;4994626;28;20041;-47
2023/03/18 00:14:34;;;;;;;11.52;3.67;;;;;;;;;;5008236;28;20509;-47
2023/03/18 00:17:02;;;;;;;11.43;3.77;;;;;;;;;;4998639;28;20749;-49
2023/03/18 00:19:29;;;;;;;10.35;3.85;;;;;;;;;;5002522;28;20132;-49
2023/03/18 00:21:57;;;;;;;12.48;3.30;;;;;;;;;;4997425;28;20491;-50
2023/03/18 00:24:26;;;;;;;8.45;3.20;;;;;;;;;;5008576;28;20064;-46
2023/03/18 00:26:54;;;;;;;9.60;3.10;;;;;;;;;;4305203;28;10000692;-48
2023/03/18 00:29:23;;;;;;;10.88;2.75;;;;;;;;;;4995103;28;20129;-47
2023/03/18 00:31:52;;;;;;;11.15;3.00;;;;;;;;;;4996315;28;20057;-47
2023/03/18 00:34:20;;;;;;;10.63;2.83;;;;;;;;;;5001321;28;20049;-47
2023/03/18 00:36:49;;;;;;;7.82;2.90;;;;;;;;;;5002423;28;20119;-46
2023/03/18 00:39:24;;;;;;;8.90;2.70;;;;;;;;;;4984380;28;20056;-48
2023/03/18 00:41:54;;;;;;;8.07;3.17;;;;;;;;;;5002913;28;20037;-46
2023/03/18 00:44:24;;;;;;;8.15;2.35;;;;;;;;;;4998930;28;20096;-47
2023/03/18 00:46:53;;;;;;;7.23;2.30;;;;;;;;;;4997161;28;20497;-49
2023/03/18 00:49:20;;;;;;;7.32;2.13;;;;;;;;;;5001934;28;20742;-46
2023/03/18 00:51:48;;;;;;;6.75;2.10;;;;;;;;;;5001308;28;20075;-48
2023/03/18 00:54:17;;;;;;;7.95;2.35;;;;;;;;;;4998334;28;20033;-46
2023/03/18 00:56:44;;;;;;;8.15;2.28;;;;;;;;;;5010226;28;20038;-46
2023/03/18 00:59:12;;;;;;;7.73;2.10;;;;;;;;;;4988978;28;20561;-46
2023/03/18 01:01:40;;;;;;;8.07;2.55;;;;;;;;;;4996276;28;20551;-48
2023/03/18 01:04:10;;;;;;;7.40;2.65;;;;;;;;;;4987044;28;20040;-46
2023/03/18 01:06:38;;;;;;;9.38;2.47;;;;;;;;;;5007860;28;20812;-47
2023/03/18 01:09:10;;;;;;;8.18;2.50;;;;;;;;;;4996659;28;20052;-45
2023/03/18 01:11:37;;;;;;;10.20;3.70;;;;;;;;;;4998136;28;20125;-46
2023/03/18 01:14:05;;;;;;;9.27;2.92;;;;;;;;;;4987662;28;20042;-45
2023/03/18 01:16:33;;;;;;;8.13;2.90;;;;;;;;;;4998581;28;20048;-45
2023/03/18 01:19:01;;;;;;;10.15;3.55;;;;;;;;;;5005925;28;20119;-45
2023/03/18 01:21:30;;;;;;;9.13;3.53;;;;;;;;;;4994437;28;20134;-46
2023/03/18 01:23:59;;;;;;;11.70;3.37;;;;;;;;;;5007799;28;20561;-45
2023/03/18 01:26:27;;;;;;;13.27;3.35;;;;;;;;;;4991567;28;21481;-45
2023/03/18 01:28:55;;;;;;;9.40;3.20;;;;;;;;;;5003104;28;20565;-45
2023/03/18 01:31:23;;;;;;;10.38;3.35;;;;;;;;;;4995118;28;20037;-45
2023/03/18 01:33:50;;;;;;;9.77;3.15;;;;;;;;;;5009045;28;20061;-47
2023/03/18 01:36:18;;;;;;;6.63;2.73;;;;;;;;;;4995264;28;20038;-47
2023/03/18 01:38:47;;;;;;;9.23;2.42;;;;;;;;;;5011667;28;20064;-46
2023/03/18 01:41:16;;;;;;;8.13;2.83;;;;;;;;;;4991629;28;20052;-46
2023/03/18 01:43:43;;;;;;;9.45;2.60;;;;;;;;;;5013883;28;20079;-45
2023/03/18 01:46:30;;;;;;;8.65;2.50;;;;;;;;;;4990911;28;20092;-47
2023/03/18 01:48:58;;;;;;;8.10;2.43;;;;;;;;;;4998814;28;20116;-45
2023/03/18 01:51:28;;;;;;;7.05;2.47;;;;;;;;;;5012356;28;20535;-45
2023/03/18 01:53:58;;;;;;;7.88;2.15;;;;;;;;;;4996445;28;20558;-46
2023/03/18 01:56:26;;;;;;;8.18;2.00;;;;;;;;;;4997240;28;20375;-45
2023/03/18 01:58:56;;;;;;;6.90;2.35;;;;;;;;;;4998424;28;20267;-46
2023/03/18 02:01:26;;;;;;;7.53;2.30;;;;;;;;;;5003806;28;20056;-46
2023/03/18 02:03:55;;;;;;;7.80;2.25;;;;;;;;;;4992724;28;20037;-48
2023/03/18 02:06:23;;;;;;;7.47;1.98;;;;;;;;;;5004776;28;20453;-45
2023/03/18 02:08:51;;;;;;;9.10;2.80;;;;;;;;;;5000149;28;20568;-47
2023/03/18 02:11:22;;;;;;;5.57;1.92;;;;;;;;;;4997659;28;20033;-49
2023/03/18 02:13:51;;;;;;;6.73;2.50;;;;;;;;;;4997466;28;20467;-46
2023/03/18 02:16:22;;;;;;;12.88;2.58;;;;;;;;;;5001554;28;20410;-47
2023/03/18 02:18:52;;;;;;;6.70;2.35;;;;;;;;;;4990222;28;20296;-50
2023/03/18 02:21:28;;;;;;;8.20;2.58;;;;;;;;;;4983351;28;20139;-48
2023/03/18 02:24:00;;;;;;;7.38;2.22;;;;;;;;;;5003010;28;20041;-47
2023/03/18 02:26:33;;;;;;;10.07;2.63;;;;;;;;;;4992003;28;20087;-45
2023/03/18 02:29:03;;;;;;;6.60;2.15;;;;;;;;;;5000691;28;20060;-50
2023/03/18 02:31:32;;;;;;;6.53;2.05;;;;;;;;;;4984030;28;20237;-46
2023/03/18 02:34:00;;;;;;;8.50;2.38;;;;;;;;;;5005793;28;20045;-46
2023/03/18 02:36:28;;;;;;;6.88;2.20;;;;;;;;;;4987349;28;20352;-47
2023/03/18 02:38:56;;;;;;;8.07;2.50;;;;;;;;;;4991527;28;20061;-47
2023/03/18 02:41:25;;;;;;;10.15;2.80;;;;;;;;;;4991740;28;20525;-47
2023/03/18 02:43:53;;;;;;;6.03;2.22;;;;;;;;;;5016958;28;20483;-45
2023/03/18 02:46:26;;;;;;;6.15;2.30;;;;;;;;;;4994065;28;20120;-46
2023/03/18 02:48:54;;;;;;;8.55;2.00;;;;;;;;;;4994959;28;20771;-45
2023/03/18 02:51:23;;;;;;;7.73;2.40;;;;;;;;;;5009878;28;20072;-45
2023/03/18 02:53:52;;;;;;;8.00;2.03;;;;;;;;;;4997978;28;20566;-47
2023/03/18 02:56:19;;;;;;;10.52;2.05;;;;;;;;;;5002564;28;20069;-46
2023/03/18 02:58:47;;;;;;;9.15;2.55;;;;;;;;;;4998183;28;20083;-45
2023/03/18 03:01:18;;;;;;;7.97;2.70;;;;;;;;;;4990893;28;20081;-46
2023/03/18 03:03:47;;;;;;;10.40;2.57;;;;;;;;;;4990721;28;20042;-47
2023/03/18 03:06:15;;;;;;;7.32;2.28;;;;;;;;;;4999340;28;20124;-45
2023/03/18 03:08:43;;;;;;;10.95;3.05;;;;;;;;;;4989956;28;20149;-50
2023/03/18 03:11:11;;;;;;;8.07;2.50;;;;;;;;;;5003155;28;20076;-46
2023/03/18 03:13:40;;;;;;;11.68;3.38;;;;;;;;;;4988083;28;20685;-45
2023/03/18 03:16:08;;;;;;;14.00;3.77;;;;;;;;;;5008269;28;20052;-45
2023/03/18 03:18:36;;;;;;;18.23;4.10;;;;;;;;;;4996147;28;20052;-46
2023/03/18 03:21:06;;;;;;;13.55;3.42;;;;;;;;;;5007590;28;20149;-45
2023/03/18 03:23:36;;;;;;;14.27;3.60;;;;;;;;;;5007454;28;20042;-47
2023/03/18 03:26:05;;;;;;;11.85;3.83;;;;;;;;;;4974297;28;20033;-45
2023/03/18 03:28:33;;;;;;;18.83;4.17;;;;;;;;;;5006750;28;20566;-46
2023/03/18 03:31:01;;;;;;;18.48;5.57;;;;;;;;;;4982511;28;20111;-46
2023/03/18 03:33:28;;;;;;;13.75;4.53;;;;;;;;;;5007710;28;20124;-47
2023/03/18 03:35:58;;;;;;;15.35;4.68;;;;;;;;;;5003333;28;20623;-45
2023/03/18 03:38:28;;;;;;;20.67;4.82;;;;;;;;;;4995682;28;20046;-47
2023/03/18 03:40:55;;;;;;;20.97;5.37;;;;;;;;;;5007661;28;20072;-47
2023/03/18 03:43:23;;;;;;;19.10;5.57;;;;;;;;;;5000579;28;20147;-45
2023/03/18 03:45:50;;;;;;;20.10;5.20;;;;;;;;;;5009976;28;20124;-45
2023/03/18 03:48:18;;;;;;;17.00;5.03;;;;;;;;;;5014680;28;20224;-46
2023/03/18 03:50:46;;;;;;;17.15;5.30;;;;;;;;;;4997732;28;20069;-45
2023/03/18 03:53:14;;;;;;;18.30;5.10;;;;;;;;;;5009801;28;20083;-47
2023/03/18 03:55:44;;;;;;;18.63;5.18;;;;;;;;;;5001451;28;20044;-47
2023/03/18 03:58:12;;;;;;;21.85;5.25;;;;;;;;;;5007773;28;20108;-45
2023/03/18 04:00:40;;;;;;;19.23;5.47;;;;;;;;;;5007840;28;20094;-45
2023/03/18 04:03:08;;;;;;;22.95;6.45;;;;;;;;;;4977764;28;20544;-46
2023/03/18 04:05:36;;;;;;;15.57;5.20;;;;;;;;;;5004227;28;20433;-48
2023/03/18 04:08:04;;;;;;;16.20;5.32;;;;;;;;;;5000604;28;20565;-45
2023/03/18 04:10:33;;;;;;;14.35;5.53;;;;;;;;;;4986075;28;20495;-45
2023/03/18 04:13:02;;;;;;;18.35;5.30;;;;;;;;;;5009975;28;20057;-45
2023/03/18 04:15:30;;;;;;;15.73;5.03;;;;;;;;;;4990005;28;20057;-45
2023/03/18 04:18:03;;;;;;;16.83;5.93;;;;;;;;;;5012121;28;20061;-45
2023/03/18 04:20:31;;;;;;;18.20;5.90;;;;;;;;;;5015717;28;20038;-45
2023/03/18 04:23:01;;;;;;;20.73;6.30;;;;;;;;;;5005728;28;20056;-48
2023/03/18 04:25:29;;;;;;;15.30;5.75;;;;;;;;;;4995284;28;20049;-46
2023/03/18 04:27:57;;;;;;;15.02;5.20;;;;;;;;;;4998478;28;20038;-49
2023/03/18 04:30:26;;;;;;;14.27;4.73;;;;;;;;;;5003905;28;20517;-48
2023/03/18 04:32:54;;;;;;;12.80;4.68;;;;;;;;;;5006900;28;20040;-47
2023/03/18 04:35:23;;;;;;;16.15;4.72;;;;;;;;;;5003586;28;20081;-47
2023/03/18 04:37:51;;;;;;;16.98;4.85;;;;;;;;;;5006057;28;20094;-47
2023/03/18 04:40:19;;;;;;;10.07;3.97;;;;;;;;;;4983627;28;20113;-46
2023/03/18 04:42:47;;;;;;;10.70;4.17;;;;;;;;;;5006136;28;20104;-45
2023/03/18 04:45:15;;;;;;;10.15;3.50;;;;;;;;;;5001986;28;20498;-45
2023/03/18 04:47:44;;;;;;;12.35;3.28;;;;;;;;;;5005408;28;20045;-46
2023/03/18 04:50:13;;;;;;;10.48;3.42;;;;;;;;;;4974526;28;20069;-46
2023/03/18 04:52:42;;;;;;;8.23;2.75;;;;;;;;;;4987703;28;20125;-45
2023/03/18 04:55:10;;;;;;;10.33;2.87;;;;;;;;;;5001086;28;20033;-48
2023/03/18 04:57:38;;;;;;;12.05;3.13;;;;;;;;;;5012566;28;20044;-44
2023/03/18 05:00:06;;;;;;;7.25;2.53;;;;;;;;;;5010818;28;20068;-45
2023/03/18 05:02:38;;;;;;;10.32;3.13;;;;;;;;;;4995421;28;20049;-46
2023/03/18 05:05:07;;;;;;;6.30;2.25;;;;;;;;;;5009519;28;20135;-46
2023/03/18 05:07:35;;;;;;;7.90;2.60;;;;;;;;;;5000924;28;20042;-44
2023/03/18 05:10:05;;;;;;;10.32;2.85;;;;;;;;;;5000297;28;20096;-47
2023/03/18 05:12:33;;;;;;;6.80;2.75;;;;;;;;;;5006065;28;20054;-44
2023/03/18 05:15:02;;;;;;;9.13;2.90;;;;;;;;;;5004903;28;20045;-46
2023/03/18 05:17:29;;;;;;;8.73;2.90;;;;;;;;;;5007740;28;20956;-45
2023/03/18 05:19:57;;;;;;;8.60;2.63;;;;;;;;;;5003559;28;20414;-45
2023/03/18 05:22:26;;;;;;;7.78;2.38;;;;;;;;;;5010058;28;20080;-45
2023/03/18 05:24:54;;;;;;;8.45;2.85;;;;;;;;;;4993816;28;20041;-46
2023/03/18 05:27:22;;;;;;;10.50;2.20;;;;;;;;;;4997180;28;20104;-46
2023/03/18 05:29:50;;;;;;;7.10;2.30;;;;;;;;;;5005547;28;20065;-44
2023/03/18 05:32:18;;;;;;;10.87;3.00;;;;;;;;;;5005703;28;20136;-45
2023/03/18 05:34:45;;;;;;;9.27;2.85;;;;;;;;;;4995250;28;20124;-45
2023/03/18 05:37:14;;;;;;;9.23;2.33;;;;;;;;;;4993251;28;20741;-45
2023/03/18 05:39:44;;;;;;;7.95;2.30;;;;;;;;;;5000431;28;20100;-46
2023/03/18 05:42:13;;;;;;;10.48;2.58;;;;;;;;;;4999288;28;20077;-47
2023/03/18 05:44:41;;;;;;;7.33;1.90;;;;;;;;;;5002792;28;20538;-46
2023/03/18 05:47:08;;;;;;;7.20;2.40;;;;;;;;;;4986631;28;20052;-48
2023/03/18 05:49:36;;;;;;;13.35;2.28;;;;;;;;;;5004609;28;20046;-45
2023/03/18 05:52:04;;;;;;;16.50;2.85;;;;;;;;;;4997264;28;20462;-46
2023/03/18 05:54:32;;;;;;;8.38;2.03;;;;;;;;;;5002269;28;20046;-46
2023/03/18 05:57:01;;;;;;;11.37;2.57;;;;;;;;;;4994413;28;20033;-46
2023/03/18 05:59:30;;;;;;;11.02;2.90;;;;;;;;;;4997856;28;21756;-44
2023/03/18 06:01:58;;;;;;;12.60;2.38;;;;;;;;;;4999101;28;20509;-44
2023/03/18 06:04:26;;;;;;;10.02;1.83;;;;;;;;;;5003497;28;20124;-46
2023/03/18 06:06:54;;;;;;;10.45;2.20;;;;;;;;;;4999841;28;20037;-47
2023/03/18 06:09:22;;;;;;;9.90;2.47;;;;;;;;;;5004754;28;20072;-45
2023/03/18 06:11:49;;;;;;;9.38;2.65;;;;;;;;;;5005799;28;20046;-47
2023/03/18 06:14:20;;;;;;;10.63;2.17;;;;;;;;;;5009296;28;20048;-46
2023/03/18 06:16:49;;;;;;;10.32;2.17;;;;;;;;;;5003245;28;20061;-46
2023/03/18 06:19:16;;;;;;;7.25;2.03;;;;;;;;;;4999858;28;20041;-44
2023/03/18 06:21:45;;;;;;;9.13;1.60;;;;;;;;;;5002277;28;20076;-45
2023/03/18 06:24:13;;;;;;;11.90;1.50;;;;;;;;;;5002538;28;20163;-45
2023/03/18 06:26:41;;;;;;;6.82;1.63;;;;;;;;;;5007137;28;20037;-45
2023/03/18 06:29:09;;;;;;;10.30;2.17;;;;;;;;;;4991954;28;20034;-45
2023/03/18 06:31:38;;;;;;;7.78;1.40;;;;;;;;;;5008672;28;20490;-46
2023/03/18 06:34:06;;;;;;;6.87;1.50;;;;;;;;;;5002625;28;20057;-47
2023/03/18 06:36:33;;;;;;;6.85;1.45;;;;;;;;;;5002288;28;20065;-45
2023/03/18 06:39:01;;;;;;;9.40;2.03;;;;;;;;;;5006925;28;20045;-44
2023/03/18 06:41:29;;;;;;;7.30;1.20;;;;;;;;;;5005022;28;20037;-49
2023/03/18 06:43:57;;;;;;;9.95;2.08;;;;;;;;;;4997049;28;20124;-47
2023/03/18 06:46:25;;;;;;;7.17;1.00;;;;;;;;;;5007738;28;20113;-45
2023/03/18 06:48:54;;;;;;;8.60;1.90;;;;;;;;;;4983596;28;21300;-45
2023/03/18 06:51:22;;;;;;;8.43;1.45;;;;;;;;;;5005433;28;20041;-48
2023/03/18 06:53:50;;;;;;;10.93;1.65;;;;;;;;;;5000776;28;20029;-44
2023/03/18 06:56:18;;;;;;;8.43;1.45;;;;;;;;;;5004463;28;20068;-45
2023/03/18 06:58:46;;;;;;;10.40;1.33;;;;;;;;;;4986307;28;20121;-46
2023/03/18 07:01:14;;;;;;;11.30;1.85;;;;;;;;;;5010139;28;20073;-45
2023/03/18 07:03:42;;;;;;;8.50;1.20;;;;;;;;;;4995030;28;20487;-45
2023/03/18 07:06:11;;;;;;;6.50;1.35;;;;;;;;;;5006086;28;20041;-47
2023/03/18 07:08:40;;;;;;;10.00;1.10;;;;;;;;;;4998779;28;20041;-46
2023/03/18 07:11:07;;;;;;;5.87;0.97;;;;;;;;;;5003990;28;20187;-47
2023/03/18 07:13:35;;;;;;;7.88;1.48;;;;;;;;;;4998816;28;20074;-44
2023/03/18 07:16:03;;;;;;;7.50;1.30;;;;;;;;;;4979589;28;20377;-46
2023/03/18 07:18:30;;;;;;;6.72;0.88;;;;;;;;;;5009994;28;20103;-45
2023/03/18 07:20:58;;;;;;;7.63;1.00;;;;;;;;;;5006564;28;20041;-45
2023/03/18 07:23:27;;;;;;;5.60;1.60;;;;;;;;;;5007222;28;20131;-45
2023/03/18 07:25:55;;;;;;;7.15;1.20;;;;;;;;;;4985319;28;20041;-45
2023/03/18 07:28:23;;;;;;;6.32;1.25;;;;;;;;;;5003357;28;20509;-45
2023/03/18 07:30:50;;;;;;;6.57;0.90;;;;;;;;;;5005978;28;20121;-45
2023/03/18 07:33:20;;;;;;;6.75;1.40;;;;;;;;;;5008326;28;20137;-48
2023/03/18 07:35:49;;;;;;;7.90;1.60;;;;;;;;;;4994122;28;20048;-47
2023/03/18 07:38:17;;;;;;;8.40;1.23;;;;;;;;;;5004454;28;20682;-47
2023/03/18 07:40:45;;;;;;;12.48;1.70;;;;;;;;;;5002926;28;20061;-45
2023/03/18 07:43:14;;;;;;;8.63;2.13;;;;;;;;;;5002580;28;20045;-44
2023/03/18 07:45:41;;;;;;;8.80;1.50;;;;;;;;;;5002644;28;20074;-45
2023/03/18 07:48:09;;;;;;;9.53;1.63;;;;;;;;;;4996676;28;20077;-44
2023/03/18 07:50:37;;;;;;;11.35;1.83;;;;;;;;;;5001062;28;20129;-46
2023/03/18 07:53:04;;;;;;;8.88;2.17;;;;;;;;;;5014271;28;20065;-44
2023/03/18 07:55:32;;;;;;;13.70;2.78;;;;;;;;;;4999927;28;20070;-44
2023/03/18 07:58:03;;;;;;;11.93;1.67;;;;;;;;;;5004127;28;20055;-45
2023/03/18 08:00:31;;;;;;;9.17;2.13;;;;;;;;;;4995934;28;20045;-47
2023/03/18 08:02:58;;;;;;;10.02;1.80;;;;;;;;;;4987252;28;20077;-45
2023/03/18 08:05:26;;;;;;;10.65;2.05;;;;;;;;;;4972091;28;20389;-46
2023/03/18 08:07:54;;;;;;;8.43;1.90;;;;;;;;;;5005905;28;20626;-46
2023/03/18 08:10:22;;;;;;;9.70;1.77;;;;;;;;;;5014158;28;20056;-45
2023/03/18 08:12:50;;;;;;;11.47;2.10;;;;;;;;;;4994420;28;20120;-47
2023/03/18 08:15:22;;;;;;;16.10;2.58;;;;;;;;;;4999887;28;20053;-46
2023/03/18 08:17:51;;;;;;;10.07;1.80;;;;;;;;;;5008120;28;20487;-44
2023/03/18 08:20:19;;;;;;;11.65;1.63;;;;;;;;;;5009865;28;20050;-45
2023/03/18 08:22:47;;;;;;;11.52;1.58;;;;;;;;;;5001381;28;20149;-45
2023/03/18 08:25:14;;;;;;;13.00;2.63;;;;;;;;;;4999255;28;20067;-47
2023/03/18 08:27:42;;;;;;;9.57;1.73;;;;;;;;;;4996189;28;20612;-47
2023/03/18 08:30:11;;;;;;;10.70;2.45;;;;;;;;;;4990664;28;20049;-47
2023/03/18 08:32:39;;;;;;;6.50;1.85;;;;;;;;;;4997703;28;20125;-47
2023/03/18 08:35:08;;;;;;;10.43;2.40;;;;;;;;;;5005652;28;20033;-46
2023/03/18 08:37:36;;;;;;;11.93;2.50;;;;;;;;;;4997777;28;20038;-45
2023/03/18 08:40:04;;;;;;;12.77;2.10;;;;;;;;;;5007964;28;20091;-45
2023/03/18 08:42:33;;;;;;;9.15;1.80;;;;;;;;;;5004019;28;20042;-46
2023/03/18 08:45:00;;;;;;;7.53;2.28;;;;;;;;;;5009461;28;20131;-45
2023/03/18 08:47:28;;;;;;;7.60;1.88;;;;;;;;;;4985912;28;20030;-45
2023/03/18 08:49:57;;;;;;;9.53;2.50;;;;;;;;;;5011117;28;20076;-46
2023/03/18 08:52:25;;;;;;;9.38;1.80;;;;;;;;;;4994965;28;20042;-46
2023/03/18 08:54:53;;;;;;;9.90;1.77;;;;;;;;;;5004798;28;20041;-45
2023/03/18 08:57:20;;;;;;;7.85;1.80;;;;;;;;;;4998426;28;20104;-47
2023/03/18 08:59:48;;;;;;;11.48;1.90;;;;;;;;;;5001850;28;20042;-48
2023/03/18 09:02:17;;;;;;;10.03;2.30;;;;;;;;;;5002052;28;20129;-46
2023/03/18 09:04:46;;;;;;;10.55;1.77;;;;;;;;;;4999918;28;20196;-46
2023/03/18 09:07:15;;;;;;;10.90;2.30;;;;;;;;;;4993563;28;20033;-49
2023/03/18 09:09:45;;;;;;;9.25;2.13;;;;;;;;;;5003350;28;20052;-45
2023/03/18 09:12:13;;;;;;;5.63;1.48;;;;;;;;;;4993214;28;20034;-48
2023/03/18 09:14:42;;;;;;;10.83;1.93;;;;;;;;;;4988806;28;20136;-46
2023/03/18 09:17:10;;;;;;;9.13;1.65;;;;;;;;;;5006728;28;20593;-45
2023/03/18 09:19:38;;;;;;;9.23;2.03;;;;;;;;;;4990134;28;20065;-46
2023/03/18 09:22:06;;;;;;;7.10;2.00;;;;;;;;;;5008436;28;20082;-46
2023/03/18 09:24:35;;;;;;;7.22;1.70;;;;;;;;;;4999115;28;20354;-46
2023/03/18 09:27:02;;;;;;;11.13;1.53;;;;;;;;;;5007835;28;20064;-50
2023/03/18 09:29:34;;;;;;;10.85;2.10;;;;;;;;;;4983391;28;20041;-48
2023/03/18 09:32:02;;;;;;;16.95;2.13;;;;;;;;;;4999358;28;20068;-47
2023/03/18 09:34:32;;;;;;;10.02;1.63;;;;;;;;;;4997041;28;20049;-48
2023/03/18 09:37:01;;;;;;;8.23;1.77;;;;;;;;;;5007452;28;20520;-45
2023/03/18 09:39:29;;;;;;;8.87;1.80;;;;;;;;;;4997433;28;20098;-49
2023/03/18 09:42:07;;;;;;;8.15;1.80;;;;;;;;;;4993258;28;20274;-48
2023/03/18 09:44:36;;;;;;;9.27;1.83;;;;;;;;;;4994489;28;20724;-48
2023/03/18 09:47:21;;;;;;;8.23;2.17;;;;;;;;;;4991332;28;20107;-45
2023/03/18 09:49:54;;;;;;;9.23;1.40;;;;;;;;;;5004328;28;20176;-47
2023/03/18 09:52:23;;;;;;;7.57;1.57;;;;;;;;;;5004105;28;20056;-46
2023/03/18 09:54:56;;;;;;;9.35;1.60;;;;;;;;;;4983075;28;20038;-47
2023/03/18 09:57:27;;;;;;;6.35;1.40;;;;;;;;;;4997781;28;20431;-45
2023/03/18 09:59:58;;;;;;;13.80;1.60;;;;;;;;;;5002684;28;20044;-46
2023/03/18 10:02:29;;;;;;;11.63;1.85;;;;;;;;;;5002707;28;20239;-47
2023/03/18 10:04:59;;;;;;;8.73;1.80;;;;;;;;;;4998587;28;20246;-45
2023/03/18 10:07:29;;;;;;;6.43;1.33;;;;;;;;;;5000886;28;20519;-45
2023/03/18 10:10:00;;;;;;;8.32;1.20;;;;;;;;;;4996906;28;20064;-45
2023/03/18 10:12:32;;;;;;;8.77;1.48;;;;;;;;;;4996889;28;20042;-45
2023/03/18 10:15:05;;;;;;;8.20;1.25;;;;;;;;;;4996281;28;20051;-45
2023/03/18 10:17:36;;;;;;;9.43;1.37;;;;;;;;;;4997425;28;20041;-44
2023/03/18 10:20:10;;;;;;;6.05;0.93;;;;;;;;;;5000520;28;20407;-48
2023/03/18 10:22:57;;;;;;;5.25;1.08;;;;;;;;;;4997069;28;20534;-45
2023/03/18 10:25:28;;;;;;;6.20;1.10;;;;;;;;;;4996056;28;20088;-45
2023/03/18 10:28:02;;;;;;;8.57;1.40;;;;;;;;;;5002473;28;20046;-45
2023/03/18 10:30:44;;;;;;;9.03;1.63;;;;;;;;;;5000540;28;20039;-46
2023/03/18 10:33:17;;;;;;;8.88;1.60;;;;;;;;;;5006692;28;20056;-46
2023/03/18 10:35:49;;;;;;;8.75;0.98;;;;;;;;;;4993214;28;20041;-49
2023/03/18 10:38:19;;;;;;;6.53;1.23;;;;;;;;;;5000279;28;20049;-47
2023/03/18 10:40:48;;;;;;;5.82;1.08;;;;;;;;;;5003623;28;20136;-47
2023/03/18 10:43:37;;;;;;;8.19;1.99;;;;;;;;;;4998545;28;10000858;-46
2023/03/18 10:46:06;;;;;;;7.93;1.38;;;;;;;;;;4990792;28;20842;-45
2023/03/18 10:48:54;;;;;;;10.35;1.42;;;;;;;;;;4986248;28;20587;-47
2023/03/18 10:51:23;;;;;;;11.82;1.95;;;;;;;;;;5004201;28;20124;-45
2023/03/18 10:53:55;;;;;;;11.70;1.57;;;;;;;;;;4999128;28;20450;-45
2023/03/18 10:56:23;;;;;;;8.30;1.40;;;;;;;;;;4994844;28;20041;-45
2023/03/18 10:58:52;;;;;;;5.45;1.23;;;;;;;;;;4991425;28;20095;-46
2023/03/18 11:01:23;;;;;;;10.40;0.70;;;;;;;;;;5007899;28;20422;-46
2023/03/18 11:03:53;;;;;;;5.45;0.73;;;;;;;;;;4982517;28;20068;-45
2023/03/18 11:06:24;;;;;;;6.03;0.80;;;;;;;;;;5000537;28;20064;-45
2023/03/18 11:08:59;;;;;;;11.18;1.30;;;;;;;;;;4994620;28;20036;-47
2023/03/18 11:11:31;;;;;;;8.50;0.93;;;;;;;;;;4991683;28;20085;-47
2023/03/18 11:14:01;;;;;;;8.25;1.25;;;;;;;;;;4996970;28;20040;-47
2023/03/18 11:16:32;;;;;;;5.22;0.68;;;;;;;;;;4980318;28;20132;-47
2023/03/18 11:19:07;;;;;;;10.20;1.00;;;;;;;;;;4996047;28;20088;-45
2023/03/18 11:21:37;;;;;;;6.28;0.77;;;;;;;;;;4655975;28;9999831;-46
2023/03/18 11:24:09;;;;;;;10.23;1.25;;;;;;;;;;5009130;28;20040;-49
2023/03/18 11:26:45;;;;;;;3.95;0.55;;;;;;;;;;5014122;28;20046;-48
2023/03/18 11:29:16;;;;;;;6.80;0.73;;;;;;;;;;4997366;28;20056;-46
2023/03/18 11:31:53;;;;;;;4.95;0.90;;;;;;;;;;5004295;28;20060;-48
2023/03/18 11:34:21;;;;;;;9.67;1.30;;;;;;;;;;4998856;28;20073;-47
2023/03/18 11:37:03;;;;;;;11.40;0.90;;;;;;;;;;4996297;28;20034;-47
2023/03/18 11:39:32;;;;;;;5.85;0.93;;;;;;;;;;5001140;28;20116;-52
2023/03/18 11:42:01;;;;;;;8.95;1.17;;;;;;;;;;4994790;28;20037;-48
2023/03/18 11:44:31;;;;;;;5.70;0.70;;;;;;;;;;5002283;28;20073;-48
2023/03/18 11:47:01;;;;;;;8.20;1.00;;;;;;;;;;4988022;28;20323;-47
2023/03/18 11:49:30;;;;;;;8.65;1.23;;;;;;;;;;4985190;28;20559;-46
2023/03/18 11:52:20;;;;;;;7.28;0.82;;;;;;;;;;4986897;28;20539;-51
2023/03/18 11:54:57;;;;;;;3.72;0.75;;;;;;;;;;5000085;28;20068;-48
2023/03/18 11:57:33;;;;;;;6.47;0.68;;;;;;;;;;4990726;28;20388;-48
2023/03/18 12:00:07;;;;;;;9.53;1.30;;;;;;;;;;5006402;28;20065;-46
2023/03/18 12:02:49;;;;;;;3.95;0.50;;;;;;;;;;4992132;28;20758;-45
2023/03/18 12:05:34;;;;;;;4.45;0.68;;;;;;;;;;4998703;28;20052;-46
2023/03/18 12:08:09;;;;;;;5.53;0.50;;;;;;;;;;5007403;28;20043;-45
2023/03/18 12:10:40;;;;;;;5.00;0.80;;;;;;;;;;4992818;28;20038;-46
2023/03/18 12:13:18;;;;;;;8.00;0.80;;;;;;;;;;5001596;28;20565;-45
2023/03/18 12:15:53;;;;;;;3.78;0.50;;;;;;;;;;5009377;28;20816;-49
2023/03/18 12:18:30;;;;;;;5.43;1.10;;;;;;;;;;4997362;28;20041;-49
2023/03/18 12:21:26;;;;;;;5.70;0.82;;;;;;;;;;4993630;28;20506;-45
2023/03/18 12:23:59;;;;;;;4.78;0.60;;;;;;;;;;5009216;28;20116;-47
2023/03/18 12:26:31;;;;;;;7.70;1.00;;;;;;;;;;5004703;28;20037;-47
2023/03/18 12:29:10;;;;;;;4.68;0.60;;;;;;;;;;5005222;28;20136;-45
2023/03/18 12:31:45;;;;;;;3.65;0.40;;;;;;;;;;5002766;28;20045;-47
2023/03/18 12:34:18;;;;;;;3.83;0.52;;;;;;;;;;4989626;28;20782;-47
2023/03/18 12:36:52;;;;;;;5.78;0.70;;;;;;;;;;4998846;28;20044;-47
2023/03/18 12:39:28;;;;;;;4.13;0.60;;;;;;;;;;5010962;28;20359;-46
2023/03/18 12:42:00;;;;;;;7.90;1.35;;;;;;;;;;4984472;28;20906;-47
2023/03/18 12:44:34;;;;;;;6.35;0.57;;;;;;;;;;5000435;28;20061;-46
2023/03/18 12:47:06;;;;;;;10.10;1.45;;;;;;;;;;5001246;28;20080;-46
2023/03/18 12:49:36;;;;;;;3.25;0.60;;;;;;;;;;5010459;28;20562;-47
2023/03/18 12:52:05;;;;;;;8.97;0.80;;;;;;;;;;4993980;28;20041;-48
2023/03/18 12:54:36;;;;;;;7.38;0.85;;;;;;;;;;5012690;28;20808;-48
2023/03/18 12:57:07;;;;;;;5.35;0.70;;;;;;;;;;4989599;28;20033;-49
2023/03/18 12:59:36;;;;;;;5.43;0.52;;;;;;;;;;5000833;28;20065;-47
2023/03/18 13:02:18;;;;;;;6.25;0.70;;;;;;;;;;4998639;28;20119;-46
2023/03/18 13:04:51;;;;;;;7.07;0.80;;;;;;;;;;5004707;28;20534;-48
2023/03/18 13:07:24;;;;;;;6.97;0.60;;;;;;;;;;4995839;28;21168;-47
2023/03/18 13:09:56;;;;;;;3.72;0.60;;;;;;;;;;5002456;28;20668;-46
2023/03/18 13:12:27;;;;;;;5.65;0.82;;;;;;;;;;4996847;28;20387;-47
2023/03/18 13:14:58;;;;;;;5.65;0.60;;;;;;;;;;5005868;28;20083;-52
2023/03/18 13:17:29;;;;;;;3.60;0.50;;;;;;;;;;4995726;28;20042;-46
2023/03/18 13:19:58;;;;;;;4.55;0.50;;;;;;;;;;4974714;28;20609;-47
2023/03/18 13:22:35;;;;;;;6.47;0.90;;;;;;;;;;4657805;28;10001541;-46
2023/03/18 13:25:08;;;;;;;4.60;0.65;;;;;;;;;;4990512;28;20099;-51
2023/03/18 13:27:48;;;;;;;4.22;0.50;;;;;;;;;;4998959;28;20100;-46
2023/03/18 13:30:28;;;;;;;4.67;0.90;;;;;;;;;;4997013;28;20132;-48
2023/03/18 13:33:20;;;;;;;4.47;0.50;;;;;;;;;;4993359;28;20042;-47
2023/03/18 13:36:13;;;;;;;3.67;0.75;;;;;;;;;;4981462;28;20520;-48
2023/03/18 13:38:54;;;;;;;5.03;0.80;;;;;;;;;;4984995;28;20196;-49
2023/03/18 13:41:37;;;;;;;8.27;0.52;;;;;;;;;;4994828;28;20091;-47
2023/03/18 13:44:09;;;;;;;5.80;0.60;;;;;;;;;;4994522;28;20415;-48
2023/03/18 13:46:37;;;;;;;8.82;0.80;;;;;;;;;;4995865;28;20116;-48
2023/03/18 13:49:05;;;;;;;3.35;0.50;;;;;;;;;;4998128;28;20033;-48
2023/03/18 13:51:49;;;;;;;5.13;0.55;;;;;;;;;;4996147;28;20145;-50
2023/03/18 13:54:19;;;;;;;4.22;0.73;;;;;;;;;;5001439;28;20542;-46
2023/03/18 13:56:49;;;;;;;5.93;0.87;;;;;;;;;;4646723;28;10000224;-48
2023/03/18 13:59:35;;;;;;;4.15;0.40;;;;;;;;;;5000523;28;20123;-50
2023/03/18 14:02:17;;;;;;;7.28;0.82;;;;;;;;;;4996794;28;20057;-47
2023/03/18 14:04:47;;;;;;;3.97;0.50;;;;;;;;;;4982910;28;20701;-46
2023/03/18 14:07:16;;;;;;;5.38;0.65;;;;;;;;;;4988672;28;20875;-48
2023/03/18 14:09:51;;;;;;;5.47;0.80;;;;;;;;;;5000929;28;20037;-47
2023/03/18 14:12:37;;;;;;;7.45;0.68;;;;;;;;;;4996684;28;20046;-45
2023/03/18 14:15:25;;;;;;;5.82;0.80;;;;;;;;;;4996245;28;20551;-49
2023/03/18 14:17:55;;;;;;;4.50;0.60;;;;;;;;;;4995147;28;20034;-47
2023/03/18 14:20:28;;;;;;;5.25;0.55;;;;;;;;;;4995806;28;20127;-45
2023/03/18 14:23:16;;;;;;;8.98;1.10;;;;;;;;;;4997774;28;20677;-49
2023/03/18 14:25:53;;;;;;;5.00;0.65;;;;;;;;;;4999339;28;20498;-48
2023/03/18 14:28:25;;;;;;;6.82;0.80;;;;;;;;;;4997466;28;20083;-46
2023/03/18 14:31:10;;;;;;;7.17;0.73;;;;;;;;;;4995090;28;20132;-47
2023/03/18 14:33:52;;;;;;;3.15;0.70;;;;;;;;;;4975847;28;20422;-47
2023/03/18 14:36:27;;;;;;;4.65;0.63;;;;;;;;;;4670607;28;10000878;-46
2023/03/18 14:39:00;;;;;;;5.23;0.83;;;;;;;;;;4998496;28;20241;-47
2023/03/18 14:41:31;;;;;;;4.63;0.60;;;;;;;;;;5003105;28;20140;-46
2023/03/18 14:44:07;;;;;;;4.20;0.45;;;;;;;;;;4995752;28;20052;-45
2023/03/18 14:46:37;;;;;;;7.32;0.63;;;;;;;;;;5000406;28;20038;-48
2023/03/18 14:49:26;;;;;;;7.90;0.77;;;;;;;;;;4979074;28;20407;-49
2023/03/18 14:51:53;;;;;;;4.37;0.67;;;;;;;;;;4990711;28;20061;-47
2023/03/18 14:54:24;;;;;;;4.10;0.77;;;;;;;;;;4993710;28;20049;-50
2023/03/18 14:56:54;;;;;;;3.08;0.50;;;;;;;;;;4993906;28;20041;-48
2023/03/18 14:59:24;;;;;;;4.28;0.60;;;;;;;;;;5002129;28;20128;-49